Franklin, Argentina
Current Conditions -  °F | °C
As of 6:00 AM on Monday 20 Oct 2014 (Local Time) from SADF Reporting Station
Clear Clear  
Wind Chill: 57°   Ceiling: Unl
Heat Index: 57°   Visibility: 6mi
Dew Point: 52°   Wind: 5mph
Humidity: 82%   Direction: 90°E
Pressure: 30.15"   Gusts: NA
Location:  34.6°S, 59.62°W
Report Text: SADF 200900Z 09004KT CAVOK 14/11 Q1021
Loading
Personal Weather Stations






























Interactive Weather Map
Tropical Storm Tracking
New forecast layout! Learn more

10-Day Weather Forecast

Advertisements
Track Severe Weather on mobile